sensor_id;sensor_type;location;lat;lon;timestamp;P1;durP1;ratioP1;P2;durP2;ratioP2
78131;SDS011;67381;47.672;9.380;2023-12-07T00:02:19;16.65;;;9.80;;
78131;SDS011;67381;47.672;9.380;2023-12-07T00:04:46;14.80;;;9.48;;
78131;SDS011;67381;47.672;9.380;2023-12-07T00:07:13;17.23;;;9.90;;
78131;SDS011;67381;47.672;9.380;2023-12-07T00:09:40;14.93;;;9.88;;
78131;SDS011;67381;47.672;9.380;2023-12-07T00:12:07;15.30;;;9.70;;
78131;SDS011;67381;47.672;9.380;2023-12-07T00:14:35;14.07;;;9.18;;
78131;SDS011;67381;47.672;9.380;2023-12-07T00:17:02;14.50;;;9.23;;
78131;SDS011;67381;47.672;9.380;2023-12-07T00:19:29;17.10;;;9.80;;
78131;SDS011;67381;47.672;9.380;2023-12-07T00:21:56;15.45;;;9.75;;
78131;SDS011;67381;47.672;9.380;2023-12-07T00:24:23;15.48;;;9.07;;
78131;SDS011;67381;47.672;9.380;2023-12-07T00:26:50;15.82;;;9.25;;
78131;SDS011;67381;47.672;9.380;2023-12-07T00:29:17;16.25;;;9.95;;
78131;SDS011;67381;47.672;9.380;2023-12-07T00:31:45;16.27;;;9.75;;
78131;SDS011;67381;47.672;9.380;2023-12-07T00:34:12;17.10;;;9.90;;
78131;SDS011;67381;47.672;9.380;2023-12-07T00:36:39;12.93;;;8.50;;
78131;SDS011;67381;47.672;9.380;2023-12-07T00:39:07;15.13;;;9.13;;
78131;SDS011;67381;47.672;9.380;2023-12-07T00:41:35;13.25;;;8.73;;
78131;SDS011;67381;47.672;9.380;2023-12-07T00:44:02;13.20;;;7.63;;
78131;SDS011;67381;47.672;9.380;2023-12-07T00:46:30;14.88;;;9.35;;
78131;SDS011;67381;47.672;9.380;2023-12-07T00:48:57;14.48;;;8.48;;
78131;SDS011;67381;47.672;9.380;2023-12-07T00:51:24;13.25;;;7.90;;
78131;SDS011;67381;47.672;9.380;2023-12-07T00:53:52;14.20;;;8.27;;
78131;SDS011;67381;47.672;9.380;2023-12-07T00:56:19;15.18;;;8.88;;
78131;SDS011;67381;47.672;9.380;2023-12-07T00:58:46;14.35;;;8.07;;
78131;SDS011;67381;47.672;9.380;2023-12-07T01:01:13;12.40;;;8.25;;
78131;SDS011;67381;47.672;9.380;2023-12-07T01:03:40;15.02;;;9.38;;
78131;SDS011;67381;47.672;9.380;2023-12-07T01:06:08;12.80;;;7.72;;
78131;SDS011;67381;47.672;9.380;2023-12-07T01:08:37;14.80;;;8.27;;
78131;SDS011;67381;47.672;9.380;2023-12-07T01:11:05;13.13;;;7.70;;
78131;SDS011;67381;47.672;9.380;2023-12-07T01:13:32;14.45;;;8.45;;
78131;SDS011;67381;47.672;9.380;2023-12-07T01:15:59;14.15;;;8.25;;
78131;SDS011;67381;47.672;9.380;2023-12-07T01:18:26;18.02;;;10.45;;
78131;SDS011;67381;47.672;9.380;2023-12-07T01:20:53;17.33;;;9.30;;
78131;SDS011;67381;47.672;9.380;2023-12-07T01:23:20;13.80;;;9.18;;
78131;SDS011;67381;47.672;9.380;2023-12-07T01:25:47;14.73;;;9.05;;
78131;SDS011;67381;47.672;9.380;2023-12-07T01:28:14;14.68;;;9.00;;
78131;SDS011;67381;47.672;9.380;2023-12-07T01:30:41;14.85;;;9.25;;
78131;SDS011;67381;47.672;9.380;2023-12-07T01:33:08;17.42;;;10.55;;
78131;SDS011;67381;47.672;9.380;2023-12-07T01:35:35;17.63;;;9.95;;
78131;SDS011;67381;47.672;9.380;2023-12-07T01:38:03;17.75;;;9.73;;
78131;SDS011;67381;47.672;9.380;2023-12-07T01:40:30;17.73;;;10.57;;
78131;SDS011;67381;47.672;9.380;2023-12-07T01:42:57;18.23;;;10.48;;
78131;SDS011;67381;47.672;9.380;2023-12-07T01:45:24;18.25;;;9.80;;
78131;SDS011;67381;47.672;9.380;2023-12-07T01:47:51;19.67;;;10.27;;
78131;SDS011;67381;47.672;9.380;2023-12-07T01:50:20;16.30;;;9.45;;
78131;SDS011;67381;47.672;9.380;2023-12-07T01:52:51;18.05;;;9.38;;
78131;SDS011;67381;47.672;9.380;2023-12-07T01:55:20;14.93;;;9.30;;
78131;SDS011;67381;47.672;9.380;2023-12-07T01:57:47;15.48;;;8.52;;
78131;SDS011;67381;47.672;9.380;2023-12-07T02:00:16;18.25;;;10.35;;
78131;SDS011;67381;47.672;9.380;2023-12-07T02:02:43;14.60;;;8.88;;
78131;SDS011;67381;47.672;9.380;2023-12-07T02:05:11;15.75;;;9.27;;
78131;SDS011;67381;47.672;9.380;2023-12-07T02:07:42;17.52;;;9.70;;
78131;SDS011;67381;47.672;9.380;2023-12-07T02:10:12;14.25;;;8.27;;
78131;SDS011;67381;47.672;9.380;2023-12-07T02:12:40;13.48;;;8.35;;
78131;SDS011;67381;47.672;9.380;2023-12-07T02:15:07;16.25;;;9.30;;
78131;SDS011;67381;47.672;9.380;2023-12-07T02:20:05;12.90;;;7.70;;
78131;SDS011;67381;47.672;9.380;2023-12-07T02:22:38;15.88;;;8.60;;
78131;SDS011;67381;47.672;9.380;2023-12-07T02:27:42;14.40;;;7.72;;
78131;SDS011;67381;47.672;9.380;2023-12-07T02:30:10;16.10;;;8.90;;
78131;SDS011;67381;47.672;9.380;2023-12-07T02:32:37;14.70;;;8.45;;
78131;SDS011;67381;47.672;9.380;2023-12-07T02:35:05;14.40;;;8.82;;
78131;SDS011;67381;47.672;9.380;2023-12-07T02:37:34;11.88;;;7.63;;
78131;SDS011;67381;47.672;9.380;2023-12-07T02:40:05;14.07;;;7.93;;
78131;SDS011;67381;47.672;9.380;2023-12-07T02:42:37;13.68;;;8.52;;
78131;SDS011;67381;47.672;9.380;2023-12-07T02:45:04;15.02;;;8.57;;
78131;SDS011;67381;47.672;9.380;2023-12-07T02:47:32;15.23;;;8.95;;
78131;SDS011;67381;47.672;9.380;2023-12-07T02:49:59;13.48;;;7.97;;
78131;SDS011;67381;47.672;9.380;2023-12-07T02:52:26;12.48;;;7.55;;
78131;SDS011;67381;47.672;9.380;2023-12-07T02:54:53;16.25;;;8.35;;
78131;SDS011;67381;47.672;9.380;2023-12-07T02:57:20;13.93;;;8.00;;
78131;SDS011;67381;47.672;9.380;2023-12-07T02:59:47;12.23;;;7.40;;
78131;SDS011;67381;47.672;9.380;2023-12-07T03:02:15;13.75;;;9.02;;
78131;SDS011;67381;47.672;9.380;2023-12-07T03:04:42;15.80;;;7.32;;
78131;SDS011;67381;47.672;9.380;2023-12-07T03:07:09;15.57;;;8.52;;
78131;SDS011;67381;47.672;9.380;2023-12-07T03:09:36;14.68;;;8.25;;
78131;SDS011;67381;47.672;9.380;2023-12-07T03:12:03;15.77;;;8.38;;
78131;SDS011;67381;47.672;9.380;2023-12-07T03:14:30;15.23;;;8.93;;
78131;SDS011;67381;47.672;9.380;2023-12-07T03:16:57;12.48;;;7.97;;
78131;SDS011;67381;47.672;9.380;2023-12-07T03:19:24;15.50;;;8.18;;
78131;SDS011;67381;47.672;9.380;2023-12-07T03:21:51;16.80;;;9.23;;
78131;SDS011;67381;47.672;9.380;2023-12-07T03:24:18;17.38;;;8.57;;
78131;SDS011;67381;47.672;9.380;2023-12-07T03:26:45;13.88;;;7.88;;
78131;SDS011;67381;47.672;9.380;2023-12-07T03:29:12;13.48;;;8.23;;
78131;SDS011;67381;47.672;9.380;2023-12-07T03:31:41;15.50;;;8.40;;
78131;SDS011;67381;47.672;9.380;2023-12-07T03:34:08;13.82;;;9.00;;
78131;SDS011;67381;47.672;9.380;2023-12-07T03:36:35;14.70;;;8.65;;
78131;SDS011;67381;47.672;9.380;2023-12-07T03:39:03;14.55;;;8.23;;
78131;SDS011;67381;47.672;9.380;2023-12-07T03:41:31;15.73;;;8.90;;
78131;SDS011;67381;47.672;9.380;2023-12-07T03:43:58;14.90;;;8.18;;
78131;SDS011;67381;47.672;9.380;2023-12-07T03:46:25;14.23;;;9.00;;
78131;SDS011;67381;47.672;9.380;2023-12-07T03:48:53;12.50;;;8.52;;
78131;SDS011;67381;47.672;9.380;2023-12-07T03:51:20;15.23;;;8.95;;
78131;SDS011;67381;47.672;9.380;2023-12-07T03:53:47;14.43;;;8.85;;
78131;SDS011;67381;47.672;9.380;2023-12-07T03:56:24;14.85;;;9.27;;
78131;SDS011;67381;47.672;9.380;2023-12-07T03:58:51;13.05;;;8.18;;
78131;SDS011;67381;47.672;9.380;2023-12-07T04:01:21;17.73;;;9.25;;
78131;SDS011;67381;47.672;9.380;2023-12-07T04:03:50;15.52;;;9.32;;
78131;SDS011;67381;47.672;9.380;2023-12-07T04:06:17;14.93;;;8.93;;
78131;SDS011;67381;47.672;9.380;2023-12-07T04:08:45;14.82;;;8.23;;
78131;SDS011;67381;47.672;9.380;2023-12-07T04:11:13;14.75;;;8.90;;
78131;SDS011;67381;47.672;9.380;2023-12-07T04:13:40;14.68;;;8.98;;
78131;SDS011;67381;47.672;9.380;2023-12-07T04:16:08;14.45;;;9.43;;
78131;SDS011;67381;47.672;9.380;2023-12-07T04:18:36;16.33;;;9.40;;
78131;SDS011;67381;47.672;9.380;2023-12-07T04:21:03;17.23;;;9.68;;
78131;SDS011;67381;47.672;9.380;2023-12-07T04:23:30;15.88;;;9.48;;
78131;SDS011;67381;47.672;9.380;2023-12-07T04:25:57;17.08;;;9.65;;
78131;SDS011;67381;47.672;9.380;2023-12-07T04:28:25;15.93;;;9.18;;
78131;SDS011;67381;47.672;9.380;2023-12-07T04:30:52;16.95;;;9.10;;
78131;SDS011;67381;47.672;9.380;2023-12-07T04:33:19;17.33;;;9.30;;
78131;SDS011;67381;47.672;9.380;2023-12-07T04:35:46;17.95;;;9.35;;
78131;SDS011;67381;47.672;9.380;2023-12-07T04:38:14;18.60;;;9.50;;
78131;SDS011;67381;47.672;9.380;2023-12-07T04:40:41;13.07;;;8.02;;
78131;SDS011;67381;47.672;9.380;2023-12-07T04:43:09;13.95;;;8.77;;
78131;SDS011;67381;47.672;9.380;2023-12-07T04:45:36;15.65;;;9.18;;
78131;SDS011;67381;47.672;9.380;2023-12-07T04:48:03;17.83;;;9.45;;
78131;SDS011;67381;47.672;9.380;2023-12-07T04:50:31;15.45;;;8.35;;
78131;SDS011;67381;47.672;9.380;2023-12-07T04:52:58;17.75;;;8.88;;
78131;SDS011;67381;47.672;9.380;2023-12-07T04:55:26;15.73;;;8.60;;
78131;SDS011;67381;47.672;9.380;2023-12-07T04:57:53;15.93;;;9.23;;
78131;SDS011;67381;47.672;9.380;2023-12-07T05:00:20;19.77;;;9.35;;
78131;SDS011;67381;47.672;9.380;2023-12-07T05:02:48;15.98;;;8.52;;
78131;SDS011;67381;47.672;9.380;2023-12-07T05:05:15;16.95;;;8.43;;
78131;SDS011;67381;47.672;9.380;2023-12-07T05:07:42;18.35;;;9.70;;
78131;SDS011;67381;47.672;9.380;2023-12-07T05:10:09;16.13;;;8.63;;
78131;SDS011;67381;47.672;9.380;2023-12-07T05:12:37;15.57;;;8.38;;
78131;SDS011;67381;47.672;9.380;2023-12-07T05:15:04;17.15;;;8.73;;
78131;SDS011;67381;47.672;9.380;2023-12-07T05:17:32;15.70;;;9.27;;
78131;SDS011;67381;47.672;9.380;2023-12-07T05:19:59;15.98;;;9.10;;
78131;SDS011;67381;47.672;9.380;2023-12-07T05:22:27;17.10;;;8.93;;
78131;SDS011;67381;47.672;9.380;2023-12-07T05:24:54;19.15;;;9.38;;
78131;SDS011;67381;47.672;9.380;2023-12-07T05:27:21;16.73;;;8.95;;
78131;SDS011;67381;47.672;9.380;2023-12-07T05:29:48;17.98;;;10.25;;
78131;SDS011;67381;47.672;9.380;2023-12-07T05:32:16;18.50;;;9.75;;
78131;SDS011;67381;47.672;9.380;2023-12-07T05:34:43;18.90;;;9.90;;
78131;SDS011;67381;47.672;9.380;2023-12-07T05:37:10;18.33;;;10.23;;
78131;SDS011;67381;47.672;9.380;2023-12-07T05:39:37;18.77;;;9.35;;
78131;SDS011;67381;47.672;9.380;2023-12-07T05:42:05;19.50;;;10.50;;
78131;SDS011;67381;47.672;9.380;2023-12-07T05:44:32;17.33;;;9.25;;
78131;SDS011;67381;47.672;9.380;2023-12-07T05:46:59;17.77;;;9.80;;
78131;SDS011;67381;47.672;9.380;2023-12-07T05:49:26;24.55;;;10.73;;
78131;SDS011;67381;47.672;9.380;2023-12-07T05:51:54;20.02;;;9.70;;
78131;SDS011;67381;47.672;9.380;2023-12-07T05:54:21;18.45;;;10.98;;
78131;SDS011;67381;47.672;9.380;2023-12-07T05:56:51;18.75;;;10.65;;
78131;SDS011;67381;47.672;9.380;2023-12-07T05:59:18;17.58;;;10.55;;
78131;SDS011;67381;47.672;9.380;2023-12-07T06:01:45;20.20;;;10.95;;
78131;SDS011;67381;47.672;9.380;2023-12-07T06:04:12;21.58;;;11.05;;
78131;SDS011;67381;47.672;9.380;2023-12-07T06:06:39;20.05;;;10.05;;
78131;SDS011;67381;47.672;9.380;2023-12-07T06:09:06;18.88;;;10.07;;
78131;SDS011;67381;47.672;9.380;2023-12-07T06:11:34;19.50;;;11.50;;
78131;SDS011;67381;47.672;9.380;2023-12-07T06:14:01;20.38;;;11.45;;
78131;SDS011;67381;47.672;9.380;2023-12-07T06:16:29;19.33;;;10.50;;
78131;SDS011;67381;47.672;9.380;2023-12-07T06:18:56;24.33;;;11.18;;
78131;SDS011;67381;47.672;9.380;2023-12-07T06:21:23;20.67;;;10.90;;
78131;SDS011;67381;47.672;9.380;2023-12-07T06:23:52;19.25;;;10.52;;
78131;SDS011;67381;47.672;9.380;2023-12-07T06:26:19;20.10;;;10.55;;
78131;SDS011;67381;47.672;9.380;2023-12-07T06:28:46;19.88;;;10.30;;
78131;SDS011;67381;47.672;9.380;2023-12-07T06:31:14;19.05;;;10.18;;
78131;SDS011;67381;47.672;9.380;2023-12-07T06:33:48;18.67;;;10.45;;
78131;SDS011;67381;47.672;9.380;2023-12-07T06:36:21;18.50;;;10.63;;
78131;SDS011;67381;47.672;9.380;2023-12-07T06:38:48;19.63;;;10.18;;
78131;SDS011;67381;47.672;9.380;2023-12-07T06:41:15;21.33;;;10.65;;
78131;SDS011;67381;47.672;9.380;2023-12-07T06:43:42;20.55;;;10.98;;
78131;SDS011;67381;47.672;9.380;2023-12-07T06:46:11;19.30;;;11.23;;
78131;SDS011;67381;47.672;9.380;2023-12-07T06:48:39;19.77;;;10.70;;
78131;SDS011;67381;47.672;9.380;2023-12-07T06:51:06;19.45;;;10.50;;
78131;SDS011;67381;47.672;9.380;2023-12-07T06:53:33;22.08;;;10.38;;
78131;SDS011;67381;47.672;9.380;2023-12-07T06:56:00;16.67;;;9.48;;
78131;SDS011;67381;47.672;9.380;2023-12-07T06:58:27;19.17;;;10.48;;
78131;SDS011;67381;47.672;9.380;2023-12-07T07:00:54;21.27;;;10.82;;
78131;SDS011;67381;47.672;9.380;2023-12-07T07:03:21;18.58;;;10.57;;
78131;SDS011;67381;47.672;9.380;2023-12-07T07:05:49;20.50;;;10.93;;
78131;SDS011;67381;47.672;9.380;2023-12-07T07:08:16;17.27;;;10.15;;
78131;SDS011;67381;47.672;9.380;2023-12-07T07:10:43;20.23;;;10.00;;
78131;SDS011;67381;47.672;9.380;2023-12-07T07:13:10;20.15;;;11.38;;
78131;SDS011;67381;47.672;9.380;2023-12-07T07:15:37;17.88;;;10.13;;
78131;SDS011;67381;47.672;9.380;2023-12-07T07:18:04;17.88;;;9.43;;
78131;SDS011;67381;47.672;9.380;2023-12-07T07:20:32;22.80;;;10.82;;
78131;SDS011;67381;47.672;9.380;2023-12-07T07:22:59;23.60;;;11.38;;
78131;SDS011;67381;47.672;9.380;2023-12-07T07:25:26;17.30;;;10.57;;
78131;SDS011;67381;47.672;9.380;2023-12-07T07:27:53;20.13;;;10.75;;
78131;SDS011;67381;47.672;9.380;2023-12-07T07:30:21;22.27;;;11.25;;
78131;SDS011;67381;47.672;9.380;2023-12-07T07:32:48;22.52;;;11.27;;
78131;SDS011;67381;47.672;9.380;2023-12-07T07:35:15;19.40;;;11.68;;
78131;SDS011;67381;47.672;9.380;2023-12-07T07:37:42;23.17;;;11.93;;
78131;SDS011;67381;47.672;9.380;2023-12-07T07:40:10;20.77;;;10.57;;
78131;SDS011;67381;47.672;9.380;2023-12-07T07:42:38;20.95;;;11.13;;
78131;SDS011;67381;47.672;9.380;2023-12-07T07:45:07;20.20;;;11.25;;
78131;SDS011;67381;47.672;9.380;2023-12-07T07:47:34;24.73;;;11.82;;
78131;SDS011;67381;47.672;9.380;2023-12-07T07:50:01;21.05;;;10.05;;
78131;SDS011;67381;47.672;9.380;2023-12-07T07:52:33;17.67;;;10.20;;
78131;SDS011;67381;47.672;9.380;2023-12-07T07:55:00;20.35;;;10.45;;
78131;SDS011;67381;47.672;9.380;2023-12-07T07:57:29;20.85;;;11.63;;
78131;SDS011;67381;47.672;9.380;2023-12-07T07:59:57;17.90;;;9.57;;
78131;SDS011;67381;47.672;9.380;2023-12-07T08:02:24;21.90;;;10.93;;
78131;SDS011;67381;47.672;9.380;2023-12-07T08:04:52;17.38;;;10.48;;
78131;SDS011;67381;47.672;9.380;2023-12-07T08:07:19;19.55;;;10.32;;
78131;SDS011;67381;47.672;9.380;2023-12-07T08:09:46;18.25;;;11.00;;
78131;SDS011;67381;47.672;9.380;2023-12-07T08:12:13;19.08;;;10.55;;
78131;SDS011;67381;47.672;9.380;2023-12-07T08:14:40;20.60;;;10.18;;
78131;SDS011;67381;47.672;9.380;2023-12-07T08:17:11;16.88;;;9.27;;
78131;SDS011;67381;47.672;9.380;2023-12-07T08:19:38;15.93;;;8.40;;
78131;SDS011;67381;47.672;9.380;2023-12-07T08:22:05;17.30;;;9.55;;
78131;SDS011;67381;47.672;9.380;2023-12-07T08:24:32;17.75;;;9.30;;
78131;SDS011;67381;47.672;9.380;2023-12-07T08:26:59;17.35;;;9.77;;
78131;SDS011;67381;47.672;9.380;2023-12-07T08:29:26;17.52;;;8.63;;
78131;SDS011;67381;47.672;9.380;2023-12-07T08:31:53;15.43;;;7.68;;
78131;SDS011;67381;47.672;9.380;2023-12-07T08:34:20;14.95;;;9.65;;
78131;SDS011;67381;47.672;9.380;2023-12-07T08:36:49;18.40;;;8.48;;
78131;SDS011;67381;47.672;9.380;2023-12-07T08:39:16;11.63;;;7.57;;
78131;SDS011;67381;47.672;9.380;2023-12-07T08:41:43;15.18;;;8.95;;
78131;SDS011;67381;47.672;9.380;2023-12-07T08:44:10;14.15;;;8.02;;
78131;SDS011;67381;47.672;9.380;2023-12-07T08:46:38;14.50;;;7.60;;
78131;SDS011;67381;47.672;9.380;2023-12-07T08:49:05;13.52;;;6.40;;
78131;SDS011;67381;47.672;9.380;2023-12-07T08:51:33;14.43;;;6.78;;
78131;SDS011;67381;47.672;9.380;2023-12-07T08:54:01;15.55;;;7.25;;
78131;SDS011;67381;47.672;9.380;2023-12-07T08:56:28;11.73;;;6.68;;
78131;SDS011;67381;47.672;9.380;2023-12-07T08:58:55;12.07;;;6.30;;
78131;SDS011;67381;47.672;9.380;2023-12-07T09:01:22;12.77;;;6.93;;
78131;SDS011;67381;47.672;9.380;2023-12-07T09:03:51;11.48;;;6.15;;
78131;SDS011;67381;47.672;9.380;2023-12-07T09:06:18;11.25;;;5.75;;
78131;SDS011;67381;47.672;9.380;2023-12-07T09:08:45;11.55;;;6.53;;
78131;SDS011;67381;47.672;9.380;2023-12-07T09:11:12;13.27;;;6.18;;
78131;SDS011;67381;47.672;9.380;2023-12-07T09:13:39;11.55;;;5.72;;
78131;SDS011;67381;47.672;9.380;2023-12-07T09:16:06;13.60;;;6.35;;
78131;SDS011;67381;47.672;9.380;2023-12-07T09:18:34;10.68;;;6.00;;
78131;SDS011;67381;47.672;9.380;2023-12-07T09:21:02;14.30;;;6.35;;
78131;SDS011;67381;47.672;9.380;2023-12-07T09:23:30;14.48;;;7.60;;
78131;SDS011;67381;47.672;9.380;2023-12-07T09:25:57;11.82;;;6.50;;
78131;SDS011;67381;47.672;9.380;2023-12-07T09:28:24;11.63;;;5.97;;
78131;SDS011;67381;47.672;9.380;2023-12-07T09:30:51;11.20;;;6.03;;
78131;SDS011;67381;47.672;9.380;2023-12-07T09:33:19;11.07;;;6.15;;
78131;SDS011;67381;47.672;9.380;2023-12-07T09:35:47;10.15;;;5.82;;
78131;SDS011;67381;47.672;9.380;2023-12-07T09:38:14;10.43;;;6.05;;
78131;SDS011;67381;47.672;9.380;2023-12-07T09:40:41;11.52;;;6.35;;
78131;SDS011;67381;47.672;9.380;2023-12-07T09:43:08;10.55;;;6.05;;
78131;SDS011;67381;47.672;9.380;2023-12-07T09:45:35;10.70;;;5.75;;
78131;SDS011;67381;47.672;9.380;2023-12-07T09:48:02;9.98;;;5.85;;
78131;SDS011;67381;47.672;9.380;2023-12-07T09:50:31;11.13;;;6.05;;
78131;SDS011;67381;47.672;9.380;2023-12-07T09:52:58;11.07;;;5.80;;
78131;SDS011;67381;47.672;9.380;2023-12-07T09:55:27;11.23;;;5.85;;
78131;SDS011;67381;47.672;9.380;2023-12-07T09:57:54;10.40;;;5.47;;
78131;SDS011;67381;47.672;9.380;2023-12-07T10:00:23;9.93;;;5.13;;
78131;SDS011;67381;47.672;9.380;2023-12-07T10:02:51;8.95;;;5.30;;
78131;SDS011;67381;47.672;9.380;2023-12-07T10:05:19;10.15;;;5.70;;
78131;SDS011;67381;47.672;9.380;2023-12-07T10:07:48;9.45;;;5.57;;
78131;SDS011;67381;47.672;9.380;2023-12-07T10:10:15;10.30;;;6.18;;
78131;SDS011;67381;47.672;9.380;2023-12-07T10:12:52;11.30;;;5.82;;
78131;SDS011;67381;47.672;9.380;2023-12-07T10:15:20;10.27;;;5.13;;
78131;SDS011;67381;47.672;9.380;2023-12-07T10:17:48;8.77;;;5.13;;
78131;SDS011;67381;47.672;9.380;2023-12-07T10:20:16;8.30;;;4.72;;
78131;SDS011;67381;47.672;9.380;2023-12-07T10:22:45;7.85;;;4.70;;
78131;SDS011;67381;47.672;9.380;2023-12-07T10:25:12;8.00;;;5.32;;
78131;SDS011;67381;47.672;9.380;2023-12-07T10:27:42;11.75;;;5.53;;
78131;SDS011;67381;47.672;9.380;2023-12-07T10:30:09;8.20;;;5.07;;
78131;SDS011;67381;47.672;9.380;2023-12-07T10:32:38;9.25;;;4.90;;
78131;SDS011;67381;47.672;9.380;2023-12-07T10:35:06;10.35;;;5.03;;
78131;SDS011;67381;47.672;9.380;2023-12-07T10:37:33;9.85;;;5.20;;
78131;SDS011;67381;47.672;9.380;2023-12-07T10:40:01;7.43;;;4.50;;
78131;SDS011;67381;47.672;9.380;2023-12-07T10:42:29;10.77;;;4.72;;
78131;SDS011;67381;47.672;9.380;2023-12-07T10:44:59;7.20;;;4.38;;
78131;SDS011;67381;47.672;9.380;2023-12-07T10:47:31;9.32;;;5.18;;
78131;SDS011;67381;47.672;9.380;2023-12-07T10:49:59;9.95;;;4.18;;
78131;SDS011;67381;47.672;9.380;2023-12-07T10:52:27;7.57;;;4.13;;
78131;SDS011;67381;47.672;9.380;2023-12-07T10:54:58;6.40;;;4.40;;
78131;SDS011;67381;47.672;9.380;2023-12-07T10:57:32;6.18;;;3.67;;
78131;SDS011;67381;47.672;9.380;2023-12-07T11:00:00;6.55;;;4.32;;
78131;SDS011;67381;47.672;9.380;2023-12-07T11:02:29;7.90;;;4.10;;
78131;SDS011;67381;47.672;9.380;2023-12-07T11:04:59;7.13;;;4.03;;
78131;SDS011;67381;47.672;9.380;2023-12-07T11:07:27;7.80;;;4.55;;
78131;SDS011;67381;47.672;9.380;2023-12-07T11:10:00;7.05;;;4.07;;
78131;SDS011;67381;47.672;9.380;2023-12-07T11:12:47;7.28;;;3.97;;
78131;SDS011;67381;47.672;9.380;2023-12-07T11:15:16;9.07;;;3.60;;
78131;SDS011;67381;47.672;9.380;2023-12-07T11:17:50;7.63;;;3.95;;
78131;SDS011;67381;47.672;9.380;2023-12-07T11:20:19;8.75;;;5.05;;
78131;SDS011;67381;47.672;9.380;2023-12-07T11:22:46;7.68;;;4.13;;
78131;SDS011;67381;47.672;9.380;2023-12-07T11:25:15;9.70;;;3.90;;
78131;SDS011;67381;47.672;9.380;2023-12-07T11:27:44;8.30;;;4.18;;
78131;SDS011;67381;47.672;9.380;2023-12-07T11:30:14;7.25;;;4.22;;
78131;SDS011;67381;47.672;9.380;2023-12-07T11:32:42;6.95;;;4.18;;
78131;SDS011;67381;47.672;9.380;2023-12-07T11:35:11;6.32;;;3.70;;
78131;SDS011;67381;47.672;9.380;2023-12-07T11:40:24;5.65;;;3.72;;
78131;SDS011;67381;47.672;9.380;2023-12-07T11:42:52;7.97;;;4.57;;
78131;SDS011;67381;47.672;9.380;2023-12-07T11:48:12;8.65;;;4.22;;
78131;SDS011;67381;47.672;9.380;2023-12-07T11:50:56;6.75;;;4.10;;
78131;SDS011;67381;47.672;9.380;2023-12-07T11:53:23;6.15;;;3.70;;
78131;SDS011;67381;47.672;9.380;2023-12-07T11:55:52;5.63;;;3.30;;
78131;SDS011;67381;47.672;9.380;2023-12-07T11:58:19;6.90;;;3.95;;
78131;SDS011;67381;47.672;9.380;2023-12-07T12:00:47;6.93;;;3.88;;
78131;SDS011;67381;47.672;9.380;2023-12-07T12:03:14;8.88;;;3.35;;
78131;SDS011;67381;47.672;9.380;2023-12-07T12:05:41;8.48;;;3.47;;
78131;SDS011;67381;47.672;9.380;2023-12-07T12:08:10;4.82;;;2.95;;
78131;SDS011;67381;47.672;9.380;2023-12-07T12:10:38;7.38;;;3.95;;
78131;SDS011;67381;47.672;9.380;2023-12-07T12:13:05;6.47;;;3.25;;
78131;SDS011;67381;47.672;9.380;2023-12-07T12:15:32;7.57;;;4.03;;
78131;SDS011;67381;47.672;9.380;2023-12-07T12:18:00;7.20;;;4.00;;
78131;SDS011;67381;47.672;9.380;2023-12-07T12:20:27;8.35;;;4.40;;
78131;SDS011;67381;47.672;9.380;2023-12-07T12:22:54;6.57;;;3.35;;
78131;SDS011;67381;47.672;9.380;2023-12-07T12:25:22;5.53;;;3.55;;
78131;SDS011;67381;47.672;9.380;2023-12-07T12:27:53;6.03;;;3.33;;
78131;SDS011;67381;47.672;9.380;2023-12-07T12:30:21;5.35;;;3.22;;
78131;SDS011;67381;47.672;9.380;2023-12-07T12:32:49;5.85;;;3.50;;
78131;SDS011;67381;47.672;9.380;2023-12-07T12:35:17;5.40;;;3.22;;
78131;SDS011;67381;47.672;9.380;2023-12-07T12:37:45;7.75;;;2.95;;
78131;SDS011;67381;47.672;9.380;2023-12-07T12:40:13;5.82;;;3.13;;
78131;SDS011;67381;47.672;9.380;2023-12-07T12:42:43;6.47;;;3.30;;
78131;SDS011;67381;47.672;9.380;2023-12-07T12:45:10;5.88;;;3.30;;
78131;SDS011;67381;47.672;9.380;2023-12-07T12:47:39;4.80;;;2.90;;
78131;SDS011;67381;47.672;9.380;2023-12-07T12:50:07;7.18;;;3.25;;
78131;SDS011;67381;47.672;9.380;2023-12-07T12:52:34;5.38;;;3.22;;
78131;SDS011;67381;47.672;9.380;2023-12-07T12:55:02;9.68;;;3.55;;
78131;SDS011;67381;47.672;9.380;2023-12-07T12:57:29;5.32;;;3.50;;
78131;SDS011;67381;47.672;9.380;2023-12-07T12:59:56;5.40;;;3.50;;
78131;SDS011;67381;47.672;9.380;2023-12-07T13:02:23;7.15;;;3.67;;
78131;SDS011;67381;47.672;9.380;2023-12-07T13:04:50;6.68;;;4.07;;
78131;SDS011;67381;47.672;9.380;2023-12-07T13:07:18;7.22;;;4.32;;
78131;SDS011;67381;47.672;9.380;2023-12-07T13:09:45;11.93;;;5.82;;
78131;SDS011;67381;47.672;9.380;2023-12-07T13:12:12;12.50;;;5.80;;
78131;SDS011;67381;47.672;9.380;2023-12-07T13:14:40;9.68;;;5.03;;
78131;SDS011;67381;47.672;9.380;2023-12-07T13:17:08;10.88;;;4.18;;
78131;SDS011;67381;47.672;9.380;2023-12-07T13:19:36;6.80;;;4.65;;
78131;SDS011;67381;47.672;9.380;2023-12-07T13:22:03;7.63;;;4.00;;
78131;SDS011;67381;47.672;9.380;2023-12-07T13:24:30;7.20;;;3.70;;
78131;SDS011;67381;47.672;9.380;2023-12-07T13:26:57;8.27;;;4.22;;
78131;SDS011;67381;47.672;9.380;2023-12-07T13:29:27;8.90;;;4.60;;
78131;SDS011;67381;47.672;9.380;2023-12-07T13:31:54;8.07;;;4.40;;
78131;SDS011;67381;47.672;9.380;2023-12-07T13:34:21;8.63;;;4.65;;
78131;SDS011;67381;47.672;9.380;2023-12-07T13:36:49;9.13;;;4.90;;
78131;SDS011;67381;47.672;9.380;2023-12-07T13:39:16;8.68;;;5.38;;
78131;SDS011;67381;47.672;9.380;2023-12-07T13:41:49;9.65;;;4.72;;
78131;SDS011;67381;47.672;9.380;2023-12-07T13:44:16;9.02;;;4.75;;
78131;SDS011;67381;47.672;9.380;2023-12-07T13:46:45;9.38;;;4.85;;
78131;SDS011;67381;47.672;9.380;2023-12-07T13:49:13;8.27;;;5.57;;
78131;SDS011;67381;47.672;9.380;2023-12-07T13:51:42;9.13;;;5.47;;
78131;SDS011;67381;47.672;9.380;2023-12-07T13:54:09;9.88;;;5.68;;
78131;SDS011;67381;47.672;9.380;2023-12-07T13:56:41;7.95;;;5.40;;
78131;SDS011;67381;47.672;9.380;2023-12-07T13:59:08;7.28;;;4.65;;
78131;SDS011;67381;47.672;9.380;2023-12-07T14:01:37;11.85;;;5.25;;
78131;SDS011;67381;47.672;9.380;2023-12-07T14:04:06;7.45;;;4.97;;
78131;SDS011;67381;47.672;9.380;2023-12-07T14:06:35;7.75;;;5.53;;
78131;SDS011;67381;47.672;9.380;2023-12-07T14:09:02;12.20;;;5.85;;
78131;SDS011;67381;47.672;9.380;2023-12-07T14:11:30;8.45;;;5.25;;
78131;SDS011;67381;47.672;9.380;2023-12-07T14:13:57;9.07;;;5.57;;
78131;SDS011;67381;47.672;9.380;2023-12-07T14:16:24;8.60;;;5.20;;
78131;SDS011;67381;47.672;9.380;2023-12-07T14:18:53;8.93;;;5.88;;
78131;SDS011;67381;47.672;9.380;2023-12-07T14:21:23;8.82;;;4.85;;
78131;SDS011;67381;47.672;9.380;2023-12-07T14:23:53;8.63;;;5.00;;
78131;SDS011;67381;47.672;9.380;2023-12-07T14:26:21;7.18;;;4.63;;
78131;SDS011;67381;47.672;9.380;2023-12-07T14:28:49;9.25;;;5.03;;
78131;SDS011;67381;47.672;9.380;2023-12-07T14:31:16;7.82;;;4.88;;
78131;SDS011;67381;47.672;9.380;2023-12-07T14:33:43;8.82;;;5.20;;
78131;SDS011;67381;47.672;9.380;2023-12-07T14:36:11;8.50;;;4.70;;
78131;SDS011;67381;47.672;9.380;2023-12-07T14:38:39;12.07;;;5.45;;
78131;SDS011;67381;47.672;9.380;2023-12-07T14:41:06;8.25;;;5.10;;
78131;SDS011;67381;47.672;9.380;2023-12-07T14:43:33;11.50;;;5.53;;
78131;SDS011;67381;47.672;9.380;2023-12-07T14:46:00;7.85;;;4.63;;
78131;SDS011;67381;47.672;9.380;2023-12-07T14:48:29;8.82;;;5.07;;
78131;SDS011;67381;47.672;9.380;2023-12-07T14:50:56;10.07;;;5.40;;